Cathlamet, WA (98612)

11:22 PM PDT on July 26, 2016 (GMT -0700)
Cathlamet 98612 | | Change Station

Elev 154 ft 46.20 °N, 123.38 °W | Updated 12 minutes ago

Mostly Cloudy
Mostly Cloudy
59.2 °F
Feels Like 59.2 °F
N
5.8
Wind Variable Wind from WSW

Today
High -- | Low -- °F
--% Chance of Precip.
Yesterday
High -- | Low -- °F
Precip. -- in
Pressure 30.15 in
Visibility 10.0 miles
Clouds Mostly Cloudy 1500 ft
Dew Point 53 °F
Humidity 79%
Rainfall 0.00 in
Snow Depth Not available.
5:48 AM 8:50 PM
Waning Gibbous, 46% visible
METAR KKLS 270556Z AUTO 30003KT 10SM BKN015 16/13 A3013 RMK AO2 SLP209 T01610133 10250 20161 51012
Pressure 30.15 in
Visibility 10.0 miles
Clouds Mostly Cloudy 1500 ft
Dew Point 53 °F
Humidity 79%
Rainfall 0.00 in
Snow Depth Not available.
5:48 AM 8:50 PM
Waning Gibbous, 46% visible
METAR KKLS 270556Z AUTO 30003KT 10SM BKN015 16/13 A3013 RMK AO2 SLP209 T01610133 10250 20161 51012

10-Day Weather Forecast

Almanac

Astronomy

Jul. 26, 2016 Rise Set
Actual Time
Civil Twilight
Nautical Twilight
Astronomical Twilight
Moon
Length of Visible Light
Length of Day
Tomorrow will be .
, % of the Moon is Illuminated

Today's Extremes

State Highs State Lows

Community

WunderPhotos

Upload Photos

1,927,818 photos uploaded!

WunderBlog® & News

Nearby

Air Quality

  Air Quality AQ Index Pollutant
Not available.

Snow Depth

Station Depth Elevation

Earthquake Activity

City Distance Mag. Time & Date
Minimum magnitude displayed is 2.5.

Coastal Water Temperatures

Place Temperature

Stations

Nearby Weather Stations

Station Location Temp. Windchill Dew Point Humidity Wind Precip. Elev Updated Type
                   

Watches & Warnings

There are currently no watches in effect.